createdAt,value
2019-05-29T00:02:01.719Z,88.03
2019-05-29T00:04:31.289Z,87.79
2019-05-29T00:07:00.634Z,87.75
2019-05-29T00:09:30.474Z,87.84
2019-05-29T00:12:00.110Z,87.73
2019-05-29T00:14:29.400Z,87.64
2019-05-29T00:16:58.824Z,87.85
2019-05-29T00:19:28.389Z,87.67
2019-05-29T00:21:57.734Z,87.91
2019-05-29T00:24:27.106Z,87.90
2019-05-29T00:26:56.623Z,88.04
2019-05-29T00:29:25.943Z,87.88
2019-05-29T00:31:55.381Z,87.67
2019-05-29T00:34:24.880Z,87.88
2019-05-29T00:36:54.211Z,88.08
2019-05-29T00:39:23.730Z,87.01
2019-05-29T00:41:53.246Z,87.21
2019-05-29T00:44:34.032Z,87.17
2019-05-29T00:46:53.619Z,87.41
2019-05-29T00:49:23.837Z,87.06
2019-05-29T00:51:53.153Z,85.26
2019-05-29T00:54:22.614Z,85.42
2019-05-29T00:56:52.144Z,85.38
2019-05-29T00:59:21.415Z,84.74
2019-05-29T01:01:51.559Z,84.08
2019-05-29T01:04:21.116Z,84.13
2019-05-29T01:06:50.403Z,83.69
2019-05-29T01:09:20.764Z,83.98
2019-05-29T01:11:50.638Z,82.99
2019-05-29T01:14:21.238Z,84.38
2019-05-29T01:16:50.850Z,85.37
2019-05-29T01:19:26.648Z,85.14
2019-05-29T01:21:57.808Z,85.00
2019-05-29T01:24:27.401Z,85.67
2019-05-29T01:26:56.923Z,85.06
2019-05-29T01:29:26.773Z,85.07
2019-05-29T01:31:56.084Z,84.72
2019-05-29T01:34:25.611Z,84.94
2019-05-29T01:36:55.107Z,85.15
2019-05-29T01:39:24.403Z,85.60
2019-05-29T01:41:53.941Z,85.67
2019-05-29T01:44:24.143Z,85.72
2019-05-29T01:46:53.527Z,85.57
2019-05-29T01:49:23.834Z,85.76
2019-05-29T01:51:53.248Z,86.32
2019-05-29T01:54:23.709Z,84.42
2019-05-29T01:56:53.488Z,85.04
2019-05-29T01:59:23.936Z,85.05
2019-05-29T02:01:53.401Z,85.33
2019-05-29T02:04:24.070Z,86.14
2019-05-29T02:06:54.115Z,86.38
2019-05-29T02:09:24.251Z,85.79
2019-05-29T02:11:53.954Z,85.58
2019-05-29T02:14:24.709Z,86.60
2019-05-29T02:16:54.146Z,85.88
2019-05-29T02:19:24.009Z,85.50
2019-05-29T02:21:55.945Z,84.84
2019-05-29T02:24:25.451Z,85.38
2019-05-29T02:26:54.760Z,84.91
2019-05-29T02:29:24.885Z,85.11
2019-05-29T02:31:54.365Z,84.60
2019-05-29T02:34:25.534Z,85.82
2019-05-29T02:36:55.045Z,85.74
2019-05-29T02:39:25.644Z,85.42
2019-05-29T02:41:55.581Z,85.70
2019-05-29T02:44:25.906Z,85.93
2019-05-29T02:46:56.704Z,86.29
2019-05-29T02:49:28.115Z,86.38
2019-05-29T02:51:57.517Z,85.81
2019-05-29T02:54:27.708Z,86.48
2019-05-29T02:56:58.483Z,86.48
2019-05-29T02:59:29.651Z,86.54
2019-05-29T03:01:59.034Z,86.65
2019-05-29T03:04:30.075Z,86.80
2019-05-29T03:07:00.344Z,86.26
2019-05-29T03:09:30.778Z,86.40
2019-05-29T03:12:00.630Z,86.00
2019-05-29T03:14:31.880Z,85.89
2019-05-29T03:17:02.125Z,85.79
2019-05-29T03:19:32.468Z,85.49
2019-05-29T03:22:02.788Z,83.23
2019-05-29T03:24:32.970Z,81.65
2019-05-29T03:27:03.037Z,80.40
2019-05-29T03:29:34.106Z,78.30
2019-05-29T03:32:03.400Z,76.43
2019-05-29T03:34:39.608Z,75.87
2019-05-29T03:37:04.119Z,75.61
2019-05-29T03:39:34.580Z,74.62
2019-05-29T03:42:04.580Z,75.21
2019-05-29T03:44:35.408Z,74.34
2019-05-29T03:47:05.241Z,71.85
2019-05-29T03:49:35.185Z,67.95
2019-05-29T03:52:04.732Z,65.54
2019-05-29T03:54:35.520Z,62.29
2019-05-29T03:57:05.125Z,61.82
2019-05-29T03:59:35.431Z,61.77
2019-05-29T04:02:05.890Z,61.25
2019-05-29T04:04:36.266Z,59.64
2019-05-29T04:07:06.587Z,58.11
2019-05-29T04:09:37.368Z,56.99
2019-05-29T04:12:08.557Z,56.25
2019-05-29T04:14:38.389Z,56.98
2019-05-29T04:17:08.017Z,58.00
2019-05-29T04:19:38.667Z,60.08
2019-05-29T04:22:11.738Z,62.19
2019-05-29T04:24:41.394Z,62.19
2019-05-29T04:27:13.875Z,64.33
2019-05-29T04:29:43.974Z,65.29
2019-05-29T04:32:13.279Z,66.52
2019-05-29T04:34:43.000Z,66.76
2019-05-29T04:37:12.357Z,67.08
2019-05-29T04:39:41.634Z,63.84
2019-05-29T04:42:11.427Z,63.49
2019-05-29T04:44:41.326Z,63.05
2019-05-29T04:47:12.146Z,62.53
2019-05-29T04:49:42.126Z,62.17
2019-05-29T04:52:11.632Z,60.75
2019-05-29T04:54:41.052Z,59.77
2019-05-29T04:57:10.593Z,58.83
2019-05-29T04:59:40.055Z,56.75
2019-05-29T05:02:09.613Z,55.23
2019-05-29T05:04:39.503Z,55.03
2019-05-29T05:07:08.857Z,56.28
2019-05-29T05:09:38.178Z,53.78
2019-05-29T05:12:07.597Z,51.56
2019-05-29T05:14:37.794Z,50.61
2019-05-29T05:17:07.331Z,50.04
2019-05-29T05:19:37.994Z,45.44
2019-05-29T05:22:07.525Z,43.46
2019-05-29T05:24:40.878Z,42.01
2019-05-29T05:27:08.056Z,40.56
2019-05-29T05:29:38.481Z,39.67
2019-05-29T05:32:07.820Z,39.85
2019-05-29T05:34:38.701Z,37.69
2019-05-29T05:37:08.150Z,36.99
2019-05-29T05:39:37.510Z,34.63
2019-05-29T05:42:07.067Z,35.86
2019-05-29T05:44:37.056Z,35.69
2019-05-29T05:47:06.380Z,35.38
2019-05-29T05:49:37.318Z,35.92
2019-05-29T05:52:06.743Z,33.94
2019-05-29T05:54:36.019Z,33.46
2019-05-29T05:57:05.711Z,35.10
2019-05-29T05:59:35.771Z,32.55
2019-05-29T06:02:05.061Z,32.85
2019-05-29T06:04:35.793Z,32.08
2019-05-29T06:07:05.298Z,32.38
2019-05-29T06:09:34.554Z,32.65
2019-05-29T06:12:03.838Z,32.60
2019-05-29T06:14:34.345Z,31.55
2019-05-29T06:17:03.724Z,31.61
2019-05-29T06:19:34.845Z,31.82
2019-05-29T06:22:05.140Z,30.52
2019-05-29T06:24:35.407Z,30.77
2019-05-29T06:27:04.705Z,31.13
2019-05-29T06:29:35.209Z,32.45
2019-05-29T06:32:05.165Z,31.37
2019-05-29T06:34:35.678Z,29.00
2019-05-29T06:37:05.283Z,28.20
2019-05-29T06:39:35.633Z,29.27
2019-05-29T06:42:04.956Z,28.67
2019-05-29T06:44:34.827Z,29.65
2019-05-29T06:47:05.633Z,31.73
2019-05-29T06:49:35.926Z,29.79
2019-05-29T06:52:08.995Z,28.46
2019-05-29T06:54:37.760Z,28.04
2019-05-29T06:57:07.172Z,29.91
2019-05-29T06:59:36.623Z,29.78
2019-05-29T07:02:05.959Z,28.48
2019-05-29T07:04:36.232Z,28.01
2019-05-29T07:07:05.908Z,26.47
2019-05-29T07:09:36.874Z,27.90
2019-05-29T07:12:06.231Z,27.02
2019-05-29T07:14:36.403Z,27.59
2019-05-29T07:17:07.659Z,26.29
2019-05-29T07:19:49.131Z,26.08
2019-05-29T07:22:08.279Z,26.97
2019-05-29T07:24:38.739Z,26.55
2019-05-29T07:27:13.404Z,26.97
2019-05-29T07:29:41.036Z,24.93
2019-05-29T07:32:10.510Z,26.89
2019-05-29T07:34:51.106Z,26.43
2019-05-29T07:37:11.359Z,26.96
2019-05-29T07:39:41.461Z,25.86
2019-05-29T07:42:10.937Z,26.44
2019-05-29T07:44:40.282Z,24.61
2019-05-29T07:47:10.047Z,24.26
2019-05-29T07:49:44.370Z,25.83
2019-05-29T07:52:11.225Z,25.25
2019-05-29T07:54:41.637Z,24.60
2019-05-29T07:57:11.191Z,24.73
2019-05-29T07:59:40.547Z,22.78
2019-05-29T08:02:09.938Z,22.73
2019-05-29T08:04:40.900Z,23.83
2019-05-29T08:07:10.406Z,23.10
2019-05-29T08:09:39.693Z,23.03
2019-05-29T08:12:09.179Z,23.44
2019-05-29T08:14:39.648Z,22.74
2019-05-29T08:17:09.340Z,22.97
2019-05-29T08:19:53.499Z,22.25
2019-05-29T08:22:09.745Z,22.21
2019-05-29T08:24:40.538Z,20.60
2019-05-29T08:27:09.976Z,21.76
2019-05-29T08:29:40.583Z,23.64
2019-05-29T08:32:10.027Z,21.89
2019-05-29T08:34:39.332Z,21.98
2019-05-29T08:37:09.979Z,21.93
2019-05-29T08:39:39.477Z,20.87
2019-05-29T08:42:22.602Z,21.95
2019-05-29T08:44:41.288Z,20.72
2019-05-29T08:47:11.200Z,20.93
2019-05-29T08:49:41.669Z,19.91
2019-05-29T08:52:12.684Z,19.88
2019-05-29T08:54:42.134Z,20.02
2019-05-29T08:57:11.421Z,22.00
2019-05-29T08:59:42.077Z,20.79
2019-05-29T09:02:11.502Z,21.95
2019-05-29T09:04:40.853Z,20.57
2019-05-29T09:07:10.523Z,22.28
2019-05-29T09:09:39.800Z,22.50
2019-05-29T09:12:09.111Z,20.44
2019-05-29T09:14:38.649Z,20.67
2019-05-29T09:17:07.989Z,20.73
2019-05-29T09:19:37.361Z,20.12
2019-05-29T09:22:06.913Z,21.83
2019-05-29T09:24:36.198Z,20.71
2019-05-29T09:27:05.504Z,18.16
2019-05-29T09:29:35.258Z,21.73
2019-05-29T09:32:04.579Z,20.48
2019-05-29T09:34:33.870Z,21.12
2019-05-29T09:37:03.860Z,19.61
2019-05-29T09:39:33.136Z,18.80
2019-05-29T09:42:02.429Z,20.11
2019-05-29T09:44:38.668Z,19.10
2019-05-29T09:47:03.011Z,18.53
2019-05-29T09:49:32.342Z,18.12
2019-05-29T09:52:02.056Z,18.15
2019-05-29T09:54:31.476Z,19.38
2019-05-29T09:57:01.141Z,19.64
2019-05-29T09:59:30.836Z,19.41
2019-05-29T10:02:05.129Z,19.58
2019-05-29T10:04:31.362Z,20.29
2019-05-29T10:07:02.273Z,20.51
2019-05-29T10:09:31.811Z,20.72
2019-05-29T10:12:04.121Z,18.78
2019-05-29T10:14:32.529Z,18.36
2019-05-29T10:17:07.456Z,17.89
2019-05-29T10:19:32.978Z,18.82
2019-05-29T10:22:04.057Z,18.37
2019-05-29T10:24:34.917Z,17.91
2019-05-29T10:27:06.782Z,18.28
2019-05-29T10:29:37.440Z,19.51
2019-05-29T10:32:07.546Z,19.48
2019-05-29T10:34:37.295Z,19.98
2019-05-29T10:37:07.140Z,19.40
2019-05-29T10:39:36.516Z,20.60
2019-05-29T10:42:06.211Z,18.66
2019-05-29T10:44:36.318Z,19.57
2019-05-29T10:47:06.222Z,20.33
2019-05-29T10:49:35.926Z,18.47
2019-05-29T10:52:15.861Z,19.04
2019-05-29T10:54:39.305Z,17.63
2019-05-29T10:57:09.650Z,17.57
2019-05-29T10:59:39.689Z,18.71
2019-05-29T11:02:09.867Z,20.48
2019-05-29T11:04:40.207Z,21.59
2019-05-29T11:07:09.845Z,22.38
2019-05-29T11:09:44.344Z,20.99
2019-05-29T11:12:12.097Z,21.30
2019-05-29T11:14:42.205Z,24.10
2019-05-29T11:17:11.676Z,23.98
2019-05-29T11:19:41.623Z,26.61
2019-05-29T11:22:25.633Z,25.71
2019-05-29T11:24:42.306Z,28.17
2019-05-29T11:27:12.033Z,30.79
2019-05-29T11:29:41.420Z,33.41
2019-05-29T11:32:11.825Z,30.97
2019-05-29T11:34:41.398Z,31.40
2019-05-29T11:37:10.857Z,32.74
2019-05-29T11:39:41.039Z,32.39
2019-05-29T11:42:26.441Z,31.96
2019-05-29T11:44:42.825Z,33.33
2019-05-29T11:47:12.973Z,33.33
2019-05-29T11:49:43.414Z,32.88
2019-05-29T11:52:24.443Z,30.97
2019-05-29T11:54:45.103Z,30.97
2019-05-29T11:57:15.099Z,33.91
2019-05-29T11:59:44.862Z,32.92
2019-05-29T12:02:18.027Z,32.20
2019-05-29T12:04:47.824Z,32.01
2019-05-29T12:07:17.601Z,33.79
2019-05-29T12:09:47.782Z,33.45
2019-05-29T12:12:17.879Z,31.93
2019-05-29T12:15:00.765Z,32.83
2019-05-29T12:17:19.622Z,34.80
2019-05-29T12:19:50.171Z,34.71
2019-05-29T12:22:19.785Z,35.70
2019-05-29T12:24:50.111Z,35.74
2019-05-29T12:27:19.699Z,33.94
2019-05-29T12:29:49.499Z,35.87
2019-05-29T12:32:19.649Z,32.51
2019-05-29T12:34:53.689Z,34.54
2019-05-29T12:37:21.231Z,33.48
2019-05-29T12:39:51.514Z,32.01
2019-05-29T12:42:21.571Z,31.39
2019-05-29T12:44:53.542Z,34.17
2019-05-29T12:47:23.643Z,34.41
2019-05-29T12:49:53.784Z,34.29
2019-05-29T12:52:23.755Z,34.51
2019-05-29T12:54:53.920Z,35.63
2019-05-29T12:57:24.338Z,33.62
2019-05-29T12:59:55.658Z,34.26
2019-05-29T13:02:26.453Z,35.47
2019-05-29T13:05:09.423Z,34.35
2019-05-29T13:07:29.322Z,36.38
2019-05-29T13:10:00.452Z,37.21
2019-05-29T13:12:30.630Z,33.91
2019-05-29T13:15:00.819Z,36.42
2019-05-29T13:17:30.732Z,34.12
2019-05-29T13:20:13.741Z,34.81
2019-05-29T13:22:32.429Z,35.13
2019-05-29T13:25:03.349Z,34.37
2019-05-29T13:27:33.522Z,35.64
2019-05-29T13:30:04.940Z,34.52
2019-05-29T13:32:34.839Z,34.27
2019-05-29T13:35:06.282Z,34.46
2019-05-29T13:37:36.187Z,34.81
2019-05-29T13:40:08.509Z,35.04
2019-05-29T13:42:39.594Z,34.89
2019-05-29T13:45:17.994Z,33.94
2019-05-29T13:47:41.710Z,35.28
2019-05-29T13:50:13.353Z,36.16
2019-05-29T13:52:42.684Z,35.18
2019-05-29T13:55:12.767Z,35.92
2019-05-29T13:57:42.918Z,36.67
2019-05-29T14:00:33.733Z,35.65
2019-05-29T14:02:45.547Z,34.49
2019-05-29T14:05:16.652Z,36.35
2019-05-29T14:07:46.137Z,35.09
2019-05-29T14:10:15.692Z,34.82
2019-05-29T14:12:45.031Z,34.74
2019-05-29T14:15:14.816Z,35.63
2019-05-29T14:17:44.188Z,34.47
2019-05-29T14:20:14.369Z,36.10
2019-05-29T14:22:43.784Z,35.45
2019-05-29T14:25:13.299Z,35.35
2019-05-29T14:27:42.636Z,35.80
2019-05-29T14:30:14.927Z,33.63
2019-05-29T14:32:44.302Z,35.01
2019-05-29T14:35:13.779Z,37.34
2019-05-29T14:37:43.172Z,34.60
2019-05-29T14:40:12.659Z,33.28
2019-05-29T14:42:42.488Z,34.61
2019-05-29T14:45:12.912Z,35.67
2019-05-29T14:47:43.334Z,35.94
2019-05-29T14:50:13.533Z,33.94
2019-05-29T14:52:43.459Z,36.15
2019-05-29T14:55:18.241Z,34.90
2019-05-29T14:57:47.909Z,35.47
2019-05-29T15:00:25.026Z,34.28
2019-05-29T15:02:50.498Z,36.06
2019-05-29T15:05:20.024Z,35.64
2019-05-29T15:07:49.378Z,35.20
2019-05-29T15:10:26.800Z,34.11
2019-05-29T15:12:51.434Z,35.00
2019-05-29T15:15:21.914Z,33.68
2019-05-29T15:17:51.963Z,33.44
2019-05-29T15:20:23.522Z,33.77
2019-05-29T15:22:53.452Z,34.40
2019-05-29T15:25:24.727Z,34.78
2019-05-29T15:27:54.620Z,32.60
2019-05-29T15:30:24.471Z,35.55
2019-05-29T15:32:55.001Z,33.96
2019-05-29T15:35:25.389Z,33.92
2019-05-29T15:37:55.360Z,32.81
2019-05-29T15:40:26.198Z,33.79
2019-05-29T15:42:56.135Z,35.62
2019-05-29T15:45:25.709Z,33.40
2019-05-29T15:47:55.237Z,33.42
2019-05-29T15:50:25.372Z,34.16
2019-05-29T15:52:55.319Z,34.39
2019-05-29T15:55:33.517Z,34.72
2019-05-29T15:57:57.426Z,35.63
2019-05-29T16:00:27.573Z,37.63
2019-05-29T16:02:57.907Z,35.64
2019-05-29T16:05:28.194Z,36.78
2019-05-29T16:07:57.545Z,35.86
2019-05-29T16:10:27.169Z,34.30
2019-05-29T16:12:57.215Z,34.22
2019-05-29T16:15:26.561Z,36.16
2019-05-29T16:17:56.755Z,35.37
2019-05-29T16:20:27.162Z,37.33
2019-05-29T16:22:56.886Z,37.71
2019-05-29T16:25:39.496Z,38.24
2019-05-29T16:27:58.342Z,37.36
2019-05-29T16:30:28.252Z,36.81
2019-05-29T16:32:58.532Z,38.44
2019-05-29T16:35:28.871Z,39.61
2019-05-29T16:37:58.890Z,39.23
2019-05-29T16:40:29.185Z,39.25
2019-05-29T16:42:59.224Z,39.95
2019-05-29T16:45:29.246Z,39.23
2019-05-29T16:54:06.601Z,39.83
2019-05-29T16:56:36.189Z,38.33
2019-05-29T16:59:06.153Z,41.20
2019-05-29T17:01:36.092Z,39.07
2019-05-29T17:04:06.074Z,41.85
2019-05-29T17:06:35.955Z,38.93
2019-05-29T17:09:08.693Z,41.18
2019-05-29T17:11:38.364Z,41.47
2019-05-29T17:14:07.765Z,42.98
2019-05-29T17:16:37.638Z,43.25
2019-05-29T17:19:07.048Z,42.66
2019-05-29T17:21:36.417Z,44.29
2019-05-29T17:24:05.970Z,44.29
2019-05-29T17:26:35.294Z,45.71
2019-05-29T17:29:05.258Z,42.94
2019-05-29T17:31:35.440Z,43.71
2019-05-29T17:34:05.461Z,42.29
2019-05-29T17:36:35.837Z,43.89
2019-05-29T17:39:08.174Z,46.83
2019-05-29T17:41:39.102Z,43.23
2019-05-29T17:44:09.289Z,45.17
2019-05-29T17:46:38.583Z,44.00
2019-05-29T17:49:08.426Z,42.92
2019-05-29T17:51:38.544Z,44.05
2019-05-29T17:54:08.521Z,44.67
2019-05-29T17:56:38.604Z,43.19
2019-05-29T17:59:08.838Z,45.03
2019-05-29T18:01:38.888Z,47.30
2019-05-29T18:04:08.720Z,44.76
2019-05-29T18:06:38.776Z,46.16
2019-05-29T18:09:09.376Z,44.21
2019-05-29T18:11:39.824Z,46.50
2019-05-29T18:14:09.630Z,46.06
2019-05-29T18:16:39.719Z,46.34
2019-05-29T18:19:09.844Z,48.68
2019-05-29T18:21:39.717Z,47.57
2019-05-29T18:24:09.803Z,48.14
2019-05-29T18:26:46.999Z,49.54
2019-05-29T18:29:11.529Z,48.64
2019-05-29T18:31:41.511Z,49.94
2019-05-29T18:34:11.373Z,49.97
2019-05-29T18:36:41.091Z,50.67
2019-05-29T18:39:11.170Z,52.48
2019-05-29T18:41:41.280Z,53.64
2019-05-29T18:44:11.392Z,53.08
2019-05-29T18:46:42.008Z,56.37
2019-05-29T18:49:14.575Z,56.09
2019-05-29T18:51:42.723Z,54.42
2019-05-29T18:54:12.256Z,54.01
2019-05-29T18:56:41.641Z,57.80
2019-05-29T18:59:11.289Z,59.97
2019-05-29T19:01:40.766Z,59.65
2019-05-29T19:04:10.107Z,61.93
2019-05-29T19:06:39.494Z,61.80
2019-05-29T19:09:09.536Z,62.11
2019-05-29T19:11:39.246Z,64.26
2019-05-29T19:14:09.314Z,64.21
2019-05-29T19:16:39.700Z,63.98
2019-05-29T19:19:09.005Z,64.61
2019-05-29T19:21:38.315Z,65.99
2019-05-29T19:24:07.966Z,66.24
2019-05-29T19:26:37.271Z,67.58
2019-05-29T19:29:06.514Z,66.57
2019-05-29T19:31:35.907Z,66.78
2019-05-29T19:34:05.266Z,65.01
2019-05-29T19:36:34.601Z,64.56
2019-05-29T19:39:06.710Z,66.93
2019-05-29T19:41:36.011Z,69.85
2019-05-29T19:44:05.568Z,67.70
2019-05-29T19:46:52.588Z,65.79
2019-05-29T19:49:06.152Z,67.43
2019-05-29T19:51:35.536Z,70.29
2019-05-29T19:54:05.035Z,69.68
2019-05-29T19:56:34.361Z,71.21
2019-05-29T19:59:03.664Z,71.01
2019-05-29T20:01:37.549Z,73.18
2019-05-29T20:04:04.371Z,70.55
2019-05-29T20:06:33.652Z,70.08
2019-05-29T20:09:03.298Z,70.38
2019-05-29T20:11:33.650Z,71.69
2019-05-29T20:14:03.034Z,72.12
2019-05-29T20:16:32.588Z,71.94
2019-05-29T20:19:01.910Z,72.94
2019-05-29T20:21:32.643Z,75.26
2019-05-29T20:24:02.424Z,75.78
2019-05-29T20:26:32.947Z,78.40
2019-05-29T20:29:02.247Z,77.00
2019-05-29T20:31:32.392Z,77.04
2019-05-29T20:34:01.747Z,74.83
2019-05-29T20:36:33.574Z,75.01
2019-05-29T20:39:02.817Z,76.20
2019-05-29T20:41:34.119Z,78.06
2019-05-29T20:44:03.167Z,78.12
2019-05-29T20:46:32.734Z,77.20
2019-05-29T20:49:02.033Z,77.95
2019-05-29T20:51:32.747Z,78.78
2019-05-29T20:54:02.766Z,80.03
2019-05-29T20:56:32.131Z,80.63
2019-05-29T20:59:02.478Z,81.79
2019-05-29T21:01:32.207Z,81.51
2019-05-29T21:04:01.477Z,80.82
2019-05-29T21:06:30.808Z,81.34
2019-05-29T21:09:00.404Z,81.34
2019-05-29T21:11:29.701Z,80.82
2019-05-29T21:13:59.066Z,82.34
2019-05-29T21:16:28.556Z,82.76
2019-05-29T21:18:57.845Z,83.34
2019-05-29T21:21:27.795Z,82.85
2019-05-29T21:23:57.341Z,82.95
2019-05-29T21:26:26.643Z,82.97
2019-05-29T21:28:55.930Z,83.42
2019-05-29T21:31:25.851Z,84.51
2019-05-29T21:33:55.174Z,84.07
2019-05-29T21:36:24.459Z,84.31
2019-05-29T21:38:53.901Z,85.17
2019-05-29T21:41:23.261Z,85.34
2019-05-29T21:43:52.537Z,85.35
2019-05-29T21:46:22.057Z,86.14
2019-05-29T21:48:51.418Z,86.02
2019-05-29T21:51:20.799Z,86.12
2019-05-29T21:53:50.317Z,85.51
2019-05-29T21:56:19.608Z,87.23
2019-05-29T21:59:03.052Z,86.04
2019-05-29T22:01:20.476Z,86.47
2019-05-29T22:03:49.748Z,87.54
2019-05-29T22:06:19.042Z,88.42
2019-05-29T22:08:48.538Z,88.66
2019-05-29T22:11:17.928Z,87.79
2019-05-29T22:13:47.184Z,86.23
2019-05-29T22:16:16.717Z,85.61
2019-05-29T22:18:46.032Z,86.58
2019-05-29T22:21:15.336Z,86.04
2019-05-29T22:23:44.952Z,84.57
2019-05-29T22:26:14.209Z,84.94
2019-05-29T22:28:43.535Z,85.71
2019-05-29T22:31:13.231Z,86.62
2019-05-29T22:33:42.570Z,86.54
2019-05-29T22:36:11.824Z,85.73
2019-05-29T22:38:41.837Z,86.00
2019-05-29T22:41:11.148Z,86.67
2019-05-29T22:43:40.408Z,86.35
2019-05-29T22:46:09.825Z,86.03
2019-05-29T22:48:39.266Z,86.17
2019-05-29T22:51:08.603Z,86.70
2019-05-29T22:53:37.940Z,85.03
2019-05-29T22:56:07.245Z,86.64
2019-05-29T22:58:36.546Z,87.37
2019-05-29T23:01:06.060Z,87.86
2019-05-29T23:03:35.415Z,87.92
2019-05-29T23:06:04.833Z,86.99
2019-05-29T23:08:34.554Z,87.41
2019-05-29T23:11:03.883Z,87.30
2019-05-29T23:13:33.205Z,86.27
2019-05-29T23:16:02.933Z,86.93
2019-05-29T23:18:32.214Z,87.64
2019-05-29T23:21:02.653Z,88.13
2019-05-29T23:23:32.456Z,88.37
2019-05-29T23:26:02.859Z,88.42
2019-05-29T23:28:32.209Z,88.96
2019-05-29T23:31:02.975Z,89.03
2019-05-29T23:33:32.395Z,88.93
2019-05-29T23:36:01.718Z,89.61
2019-05-29T23:38:31.294Z,89.46
2019-05-29T23:41:01.509Z,89.30
2019-05-29T23:43:30.830Z,89.32
2019-05-29T23:46:02.381Z,89.17
2019-05-29T23:48:31.690Z,88.34
2019-05-29T23:51:01.758Z,88.37
2019-05-29T23:53:31.123Z,89.31
2019-05-29T23:56:00.428Z,88.95
2019-05-29T23:58:30.219Z,89.21
